Terminal Aerodrome Forecast
Issued by NWS

Home | Current Version | Previous Version | Graphics & Text | Print | Product List | Glossary On
Versions: 1 2 3 4 5 6 7 8 9 10 11 12 13
112
FTUS43 KFGF 280135 AAA
TAFBJI
TAF AMD
KBJI 280135Z 2802/2824 30010KT P6SM OVC026
      TEMPO 2802/2804 OVC019
     FM280600 31009KT P6SM OVC009
     FM281500 31009KT P6SM SCT015
     FM282300 33008KT P6SM FEW130=

USA.gov is the U.S. government's official web portal to all federal, state and local government web resources and services.